createdAt,value
2016-04-01T00:00:29.050Z,9.81
2016-04-01T00:01:28.990Z,9.78
2016-04-01T00:02:28.900Z,9.81
2016-04-01T00:03:28.761Z,9.81
2016-04-01T00:04:28.873Z,9.81
2016-04-01T00:05:28.766Z,9.81
2016-04-01T00:06:28.097Z,9.82
2016-04-01T00:07:28.756Z,9.78
2016-04-01T00:08:28.697Z,9.79
2016-04-01T00:09:28.652Z,9.83
2016-04-01T00:10:28.686Z,9.86
2016-04-01T00:11:29.986Z,9.76
2016-04-01T00:12:29.020Z,9.78
2016-04-01T00:13:28.960Z,9.81
2016-04-01T00:14:28.682Z,9.76
2016-04-01T00:15:28.527Z,9.83
2016-04-01T00:16:28.922Z,9.79
2016-04-01T00:17:28.471Z,9.83
2016-04-01T00:18:28.567Z,9.76
2016-04-01T00:19:28.524Z,9.79
2016-04-01T00:20:28.479Z,9.79
2016-04-01T00:21:29.450Z,9.79
2016-04-01T00:22:28.376Z,9.81
2016-04-01T00:23:42.143Z,9.76
2016-04-01T00:24:28.381Z,9.78
2016-04-01T00:25:29.790Z,9.82
2016-04-01T00:26:28.464Z,9.79
2016-04-01T00:27:28.279Z,9.81
2016-04-01T00:28:28.531Z,9.81
2016-04-01T00:29:28.159Z,9.76
2016-04-01T00:30:28.756Z,9.83
2016-04-01T00:31:28.352Z,9.82
2016-04-01T00:32:28.074Z,9.81
2016-04-01T00:33:28.201Z,9.78
2016-04-01T00:34:29.235Z,9.81
2016-04-01T00:35:41.848Z,9.78
2016-04-01T00:36:28.038Z,9.79
2016-04-01T00:37:28.149Z,9.79
2016-04-01T00:38:28.231Z,9.81
2016-04-01T00:39:28.405Z,9.81
2016-04-01T00:40:28.939Z,9.81
2016-04-01T00:41:28.489Z,9.76
2016-04-01T00:42:28.522Z,9.79
2016-04-01T00:43:28.338Z,9.82
2016-04-01T00:44:27.855Z,9.82
2016-04-01T00:45:27.780Z,9.76
2016-04-01T00:46:29.299Z,9.76
2016-04-01T00:47:28.395Z,9.76
2016-04-01T00:48:41.538Z,9.85
2016-04-01T00:49:27.994Z,9.76
2016-04-01T00:50:27.841Z,9.78
2016-04-01T00:51:27.907Z,9.81
2016-04-01T00:52:27.706Z,9.79
2016-04-01T00:53:27.614Z,9.78
2016-04-01T00:54:27.696Z,9.81
2016-04-01T00:55:28.308Z,9.79
2016-04-01T00:56:27.529Z,9.79
2016-04-01T00:57:27.579Z,9.75
2016-04-01T00:58:27.407Z,9.76
2016-04-01T00:59:27.425Z,9.83
2016-04-01T01:00:27.553Z,9.81
2016-04-01T01:01:27.840Z,9.85
2016-04-01T01:02:27.371Z,9.82
2016-04-01T01:03:27.689Z,9.79
2016-04-01T01:04:27.832Z,9.75
2016-04-01T01:05:27.991Z,9.79
2016-04-01T01:06:27.241Z,9.76
2016-04-01T01:07:28.042Z,9.76
2016-04-01T01:08:27.230Z,9.85
2016-04-01T01:09:27.108Z,9.82
2016-04-01T01:10:27.173Z,9.79
2016-04-01T01:11:27.208Z,9.78
2016-04-01T01:12:27.225Z,9.82
2016-04-01T01:13:27.619Z,9.79
2016-04-01T01:14:27.106Z,9.79
2016-04-01T01:15:27.202Z,9.81
2016-04-01T01:16:27.049Z,9.76
2016-04-01T01:17:26.896Z,9.78
2016-04-01T01:18:28.057Z,9.76
2016-04-01T01:19:27.166Z,9.79
2016-04-01T01:20:26.919Z,9.78
2016-04-01T01:21:26.827Z,9.75
2016-04-01T01:22:27.034Z,9.73
2016-04-01T01:23:26.912Z,9.76
2016-04-01T01:24:26.914Z,9.73
2016-04-01T01:25:26.729Z,9.6
2016-04-01T01:26:26.748Z,9.75
2016-04-01T01:27:26.718Z,9.61
2016-04-01T01:28:27.284Z,9.71
2016-04-01T01:29:26.678Z,9.66
2016-04-01T01:30:26.774Z,9.64
2016-04-01T01:31:26.948Z,9.68
2016-04-01T01:32:26.561Z,9.63
2016-04-01T01:33:26.767Z,9.58
2016-04-01T01:34:26.487Z,9.64
2016-04-01T01:35:26.990Z,9.67
2016-04-01T01:36:26.399Z,9.63
2016-04-01T01:37:26.730Z,9.61
2016-04-01T01:38:26.702Z,9.61
2016-04-01T01:39:26.751Z,9.68
2016-04-01T01:40:27.300Z,9.64
2016-04-01T01:41:27.256Z,9.64
2016-04-01T01:42:27.259Z,9.57
2016-04-01T01:43:26.793Z,9.67
2016-04-01T01:44:27.249Z,9.61
2016-04-01T01:45:26.032Z,9.63
2016-04-01T01:46:26.239Z,9.67
2016-04-01T01:47:27.272Z,9.66
2016-04-01T01:48:27.666Z,9.63
2016-04-01T01:49:26.700Z,9.66
2016-04-01T01:50:26.890Z,9.63
2016-04-01T01:51:27.299Z,9.63
2016-04-01T01:52:26.708Z,9.66
2016-04-01T01:53:27.320Z,9.63
2016-04-01T01:54:27.276Z,9.63
2016-04-01T01:55:27.279Z,9.63
2016-04-01T01:56:26.672Z,9.66
2016-04-01T01:57:27.378Z,9.61
2016-04-01T01:58:26.724Z,9.66
2016-04-01T01:59:26.884Z,9.63
2016-04-01T02:00:26.667Z,9.6
2016-04-01T02:01:26.779Z,9.52
2016-04-01T02:02:26.172Z,9.61
2016-04-01T02:03:27.565Z,9.64
2016-04-01T02:04:26.897Z,9.6
2016-04-01T02:05:26.836Z,9.56
2016-04-01T02:06:26.730Z,9.56
2016-04-01T02:07:26.186Z,9.56
2016-04-01T02:08:26.709Z,9.53
2016-04-01T02:09:26.696Z,9.5
2016-04-01T02:10:26.667Z,9.48
2016-04-01T02:11:26.155Z,9.6
2016-04-01T02:12:24.955Z,9.53
2016-04-01T02:13:25.972Z,9.52
2016-04-01T02:14:25.475Z,9.53
2016-04-01T02:15:26.024Z,9.5
2016-04-01T02:16:25.980Z,9.53
2016-04-01T02:17:25.327Z,9.5
2016-04-01T02:18:25.377Z,9.5
2016-04-01T02:19:25.411Z,9.57
2016-04-01T02:20:25.398Z,9.53
2016-04-01T02:21:25.275Z,9.49
2016-04-01T02:22:26.090Z,9.48
2016-04-01T02:23:26.046Z,9.5
2016-04-01T02:24:25.924Z,9.53
2016-04-01T02:25:26.754Z,9.5
2016-04-01T02:26:25.507Z,9.52
2016-04-01T02:27:25.838Z,9.5
2016-04-01T02:28:25.810Z,9.56
2016-04-01T02:29:25.376Z,9.53
2016-04-01T02:30:25.268Z,9.53
2016-04-01T02:31:25.553Z,9.53
2016-04-01T02:32:25.476Z,9.53
2016-04-01T02:33:24.948Z,9.53
2016-04-01T02:34:25.997Z,9.56
2016-04-01T02:35:25.125Z,9.61
2016-04-01T02:36:24.862Z,9.53
2016-04-01T02:37:25.084Z,9.58
2016-04-01T02:38:24.822Z,9.6
2016-04-01T02:39:24.792Z,9.61
2016-04-01T02:40:24.827Z,9.57
2016-04-01T02:41:24.782Z,9.58
2016-04-01T02:42:24.691Z,9.6
2016-04-01T02:43:24.865Z,9.63
2016-04-01T02:44:24.852Z,9.63
2016-04-01T02:45:24.636Z,9.61
2016-04-01T02:46:24.998Z,9.64
2016-04-01T02:47:24.876Z,9.67
2016-04-01T02:48:24.566Z,9.58
2016-04-01T02:49:24.678Z,9.61
2016-04-01T02:50:24.665Z,9.66
2016-04-01T02:51:24.777Z,9.7
2016-04-01T02:52:24.515Z,9.61
2016-04-01T02:53:24.471Z,9.68
2016-04-01T02:54:24.505Z,9.66
2016-04-01T02:55:24.867Z,9.63
2016-04-01T02:56:24.526Z,9.66
2016-04-01T02:57:24.294Z,9.63
2016-04-01T02:58:24.281Z,9.61
2016-04-01T02:59:24.346Z,9.67
2016-04-01T03:00:24.193Z,9.58
2016-04-01T03:01:24.195Z,9.67
2016-04-01T03:02:24.495Z,9.66
2016-04-01T03:03:24.029Z,9.66
2016-04-01T03:04:24.750Z,9.63
2016-04-01T03:05:37.942Z,9.57
2016-04-01T03:06:24.114Z,9.63
2016-04-01T03:07:24.243Z,9.64
2016-04-01T03:08:25.214Z,9.64
2016-04-01T03:09:24.091Z,9.64
2016-04-01T03:10:24.001Z,9.58
2016-04-01T03:11:23.910Z,9.64
2016-04-01T03:12:37.759Z,9.52
2016-04-01T03:13:24.244Z,9.61
2016-04-01T03:14:25.089Z,9.57
2016-04-01T03:15:23.921Z,9.53
2016-04-01T03:16:24.126Z,9.52
2016-04-01T03:17:24.551Z,9.5
2016-04-01T03:18:24.459Z,9.5
2016-04-01T03:19:24.040Z,9.5
2016-04-01T03:20:24.027Z,9.5
2016-04-01T03:21:24.468Z,9.5
2016-04-01T03:22:24.627Z,9.52
2016-04-01T03:23:23.926Z,9.56
2016-04-01T03:24:23.741Z,9.53
2016-04-01T03:25:24.448Z,9.48
2016-04-01T03:26:23.543Z,9.53
2016-04-01T03:27:23.937Z,9.46
2016-04-01T03:28:24.002Z,9.42
2016-04-01T03:29:23.505Z,9.48
2016-04-01T03:30:23.773Z,9.43
2016-04-01T03:31:22.682Z,9.4
2016-04-01T03:32:23.607Z,9.46
2016-04-01T03:33:23.470Z,9.4
2016-04-01T03:34:23.439Z,9.39
2016-04-01T03:35:23.349Z,9.35
2016-04-01T03:36:23.508Z,9.35
2016-04-01T03:37:23.620Z,9.43
2016-04-01T03:38:24.279Z,9.48
2016-04-01T03:39:23.172Z,9.39
2016-04-01T03:40:23.175Z,9.39
2016-04-01T03:41:23.334Z,9.34
2016-04-01T03:42:23.336Z,9.23
2016-04-01T03:43:23.199Z,9.25
2016-04-01T03:44:23.077Z,9.3
2016-04-01T03:45:23.142Z,9.28
2016-04-01T03:46:23.035Z,9.28
2016-04-01T03:47:23.007Z,9.24
2016-04-01T03:48:23.025Z,9.21
2016-04-01T03:49:22.933Z,9.25
2016-04-01T03:50:23.015Z,9.18
2016-04-01T03:51:22.908Z,9.18
2016-04-01T03:52:22.879Z,9.15
2016-04-01T03:53:22.851Z,9.21
2016-04-01T03:54:22.838Z,9.21
2016-04-01T03:55:22.810Z,9.1
2016-04-01T03:56:22.952Z,9.23
2016-04-01T03:57:22.908Z,9.13
2016-04-01T03:58:23.442Z,9.06
2016-04-01T03:59:22.851Z,9.12
2016-04-01T04:00:22.025Z,9.1
2016-04-01T04:01:22.684Z,9.12
2016-04-01T04:02:22.718Z,9.1
2016-04-01T04:03:23.456Z,9.09
2016-04-01T04:04:22.584Z,9.09
2016-04-01T04:05:22.601Z,9.12
2016-04-01T04:06:22.526Z,9.1
2016-04-01T04:07:22.451Z,9.12
2016-04-01T04:08:22.500Z,9.05
2016-04-01T04:09:22.456Z,9.06
2016-04-01T04:10:22.569Z,9.05
2016-04-01T04:11:22.508Z,9.06
2016-04-01T04:12:22.355Z,9.05
2016-04-01T04:13:22.748Z,9.13
2016-04-01T04:14:22.485Z,9.04
2016-04-01T04:15:22.347Z,9.05
2016-04-01T04:16:22.256Z,8.99
2016-04-01T04:17:22.228Z,8.99
2016-04-01T04:18:22.230Z,8.99
2016-04-01T04:19:22.186Z,9.02
2016-04-01T04:20:22.111Z,8.94
2016-04-01T04:21:22.144Z,8.99
2016-04-01T04:22:22.132Z,9.02
2016-04-01T04:23:22.057Z,8.99
2016-04-01T04:24:22.044Z,8.99
2016-04-01T04:25:21.999Z,9.02
2016-04-01T04:26:21.987Z,8.94
2016-04-01T04:27:21.974Z,8.97
2016-04-01T04:28:21.914Z,8.93
2016-04-01T04:29:21.901Z,8.94
2016-04-01T04:30:21.888Z,9.01
2016-04-01T04:31:22.141Z,8.94
2016-04-01T04:32:22.190Z,8.93
2016-04-01T04:33:22.006Z,8.9
2016-04-01T04:34:22.070Z,8.83
2016-04-01T04:35:21.761Z,8.87
2016-04-01T04:36:21.951Z,8.88
2016-04-01T04:37:21.719Z,8.79
2016-04-01T04:38:21.722Z,8.81
2016-04-01T04:39:20.818Z,8.79
2016-04-01T04:40:21.617Z,8.81
2016-04-01T04:41:21.589Z,8.71
2016-04-01T04:42:21.592Z,8.71
2016-04-01T04:43:21.533Z,8.73
2016-04-01T04:44:21.520Z,8.71
2016-04-01T04:45:21.538Z,8.71
2016-04-01T04:46:21.462Z,8.83
2016-04-01T04:47:21.464Z,8.68
2016-04-01T04:48:21.514Z,8.73
2016-04-01T04:49:21.408Z,8.83
2016-04-01T04:50:21.363Z,8.78
2016-04-01T04:51:21.554Z,8.86
2016-04-01T04:52:21.338Z,8.86
2016-04-01T04:53:21.277Z,8.73
2016-04-01T04:54:21.358Z,8.78
2016-04-01T04:55:21.346Z,8.87
2016-04-01T04:56:21.285Z,8.81
2016-04-01T04:57:21.180Z,8.79
2016-04-01T04:58:21.291Z,8.78
2016-04-01T04:59:21.215Z,8.87
2016-04-01T05:00:21.125Z,8.88
2016-04-01T05:01:21.315Z,8.93
2016-04-01T05:02:21.270Z,8.99
2016-04-01T05:03:21.321Z,8.91
2016-04-01T05:04:21.245Z,8.87
2016-04-01T05:05:21.154Z,8.97
2016-04-01T05:06:21.156Z,8.94
2016-04-01T05:07:21.128Z,8.96
2016-04-01T05:09:20.992Z,8.99
2016-04-01T05:10:20.933Z,8.9
2016-04-01T05:11:20.920Z,8.97
2016-04-01T05:12:20.094Z,8.96
2016-04-01T05:14:20.772Z,8.94
2016-04-01T05:15:21.102Z,8.96
2016-04-01T05:16:22.090Z,8.99
2016-04-01T05:17:20.514Z,8.99
2016-04-01T05:18:21.172Z,8.96
2016-04-01T05:19:21.332Z,8.94
2016-04-01T05:20:21.225Z,8.97
2016-04-01T05:21:20.619Z,8.99
2016-04-01T05:22:20.653Z,8.96
2016-04-01T05:23:20.655Z,9.02
2016-04-01T05:24:20.799Z,8.99
2016-04-01T05:25:20.505Z,9.06
2016-04-01T05:26:20.320Z,8.99
2016-04-01T05:27:20.463Z,9.09
2016-04-01T05:28:21.246Z,9.06
2016-04-01T05:29:20.577Z,9.04
2016-04-01T05:30:20.299Z,9.1
2016-04-01T05:31:20.318Z,9.04
2016-04-01T05:32:20.257Z,9.06
2016-04-01T05:33:20.229Z,9.1
2016-04-01T05:34:20.185Z,9.05
2016-04-01T05:35:20.015Z,9.1
2016-04-01T05:36:20.143Z,9.06
2016-04-01T05:37:20.115Z,9.01
2016-04-01T05:38:20.087Z,9.09
2016-04-01T05:39:20.059Z,9.02
2016-04-01T05:40:20.029Z,9.01
2016-04-01T05:41:20.406Z,8.97
2016-04-01T05:42:20.051Z,8.99
2016-04-01T05:43:20.069Z,8.99
2016-04-01T05:44:19.931Z,8.96
2016-04-01T05:45:19.902Z,8.96
2016-04-01T05:46:20.030Z,8.93
2016-04-01T05:47:19.861Z,8.96
2016-04-01T05:48:19.676Z,8.94
2016-04-01T05:49:19.819Z,8.97
2016-04-01T05:50:19.790Z,9.01
2016-04-01T05:51:19.871Z,8.97
2016-04-01T05:52:19.811Z,9.02
2016-04-01T05:53:19.721Z,8.97
2016-04-01T05:54:19.692Z,9.06
2016-04-01T05:55:19.694Z,9.1
2016-04-01T05:56:19.604Z,9.05
2016-04-01T05:57:19.716Z,9.1
2016-04-01T05:58:19.562Z,9.09
2016-04-01T05:59:19.549Z,9.12
2016-04-01T06:00:19.521Z,9.16
2016-04-01T06:01:19.351Z,9.18
2016-04-01T06:02:19.464Z,9.21
2016-04-01T06:03:19.450Z,9.23
2016-04-01T06:04:19.453Z,9.31
2016-04-01T06:05:19.362Z,9.35
2016-04-01T06:06:19.473Z,9.28
2016-04-01T06:07:19.352Z,9.38
2016-04-01T06:08:19.311Z,9.39
2016-04-01T06:09:19.283Z,9.4
2016-04-01T06:10:19.224Z,9.38
2016-04-01T06:11:19.289Z,9.45
2016-04-01T06:12:19.197Z,9.46
2016-04-01T06:13:19.153Z,9.49
2016-04-01T06:14:19.250Z,9.46
2016-04-01T06:15:19.113Z,9.53
2016-04-01T06:16:19.099Z,9.53
2016-04-01T06:17:19.039Z,9.56
2016-04-01T06:18:19.073Z,9.52
2016-04-01T06:19:19.029Z,9.64
2016-04-01T06:20:19.063Z,9.61
2016-04-01T06:21:19.049Z,9.67
2016-04-01T06:22:19.005Z,9.66
2016-04-01T06:23:18.961Z,9.68
2016-04-01T06:24:18.902Z,9.61
2016-04-01T06:25:18.857Z,9.68
2016-04-01T06:26:18.859Z,9.75
2016-04-01T06:27:18.847Z,9.73
2016-04-01T06:28:18.818Z,9.81
2016-04-01T06:29:18.743Z,9.79
2016-04-01T06:30:18.730Z,9.81
2016-04-01T06:31:18.701Z,9.81
2016-04-01T06:32:18.783Z,9.91
2016-04-01T06:33:18.754Z,9.96
2016-04-01T06:34:18.632Z,9.79
2016-04-01T06:35:18.728Z,9.94
2016-04-01T06:36:18.684Z,9.89
2016-04-01T06:37:18.562Z,9.96
2016-04-01T06:38:18.533Z,10.04
2016-04-01T06:39:18.598Z,9.94
2016-04-01T06:40:18.476Z,10
2016-04-01T06:41:18.510Z,10.06
2016-04-01T06:42:18.481Z,10.06
2016-04-01T06:43:17.624Z,10.04
2016-04-01T06:44:18.377Z,10.03
2016-04-01T06:45:19.208Z,10.03
2016-04-01T06:46:19.351Z,10.14
2016-04-01T06:47:18.635Z,10.12
2016-04-01T06:48:18.435Z,10.1
2016-04-01T06:49:18.219Z,10.14
2016-04-01T06:50:19.410Z,10.07
2016-04-01T06:51:19.115Z,10.06
2016-04-01T06:52:18.993Z,10.12
2016-04-01T06:53:32.136Z,10.09
2016-04-01T06:54:18.185Z,10.15
2016-04-01T06:55:18.188Z,10.17
2016-04-01T06:56:18.191Z,10.21
2016-04-01T06:57:18.428Z,10.25
2016-04-01T06:58:18.134Z,10.39
2016-04-01T06:59:19.417Z,10.37
2016-04-01T07:00:18.326Z,10.33
2016-04-01T07:01:19.064Z,10.44
2016-04-01T07:02:18.332Z,10.42
2016-04-01T07:03:32.569Z,10.37
2016-04-01T07:04:18.478Z,10.33
2016-04-01T07:05:18.903Z,10.36
2016-04-01T07:06:18.218Z,10.37
2016-04-01T07:07:18.798Z,10.39
2016-04-01T07:08:18.207Z,10.44
2016-04-01T07:09:18.803Z,10.46
2016-04-01T07:10:18.791Z,10.51
2016-04-01T07:11:18.075Z,10.51
2016-04-01T07:12:17.922Z,10.52
2016-04-01T07:13:18.018Z,10.58
2016-04-01T07:14:17.817Z,10.55
2016-04-01T07:15:18.491Z,10.58
2016-04-01T07:16:17.822Z,10.65
2016-04-01T07:17:17.779Z,10.68
2016-04-01T07:18:18.516Z,10.68
2016-04-01T07:19:17.660Z,10.65
2016-04-01T07:20:18.038Z,10.65
2016-04-01T07:21:18.211Z,10.65
2016-04-01T07:22:17.745Z,10.68
2016-04-01T07:23:18.123Z,10.74
2016-04-01T07:24:18.127Z,10.78
2016-04-01T07:25:17.409Z,10.78
2016-04-01T07:26:17.365Z,10.77
2016-04-01T07:27:17.415Z,10.78
2016-04-01T07:28:17.527Z,10.8
2016-04-01T07:29:17.201Z,10.8
2016-04-01T07:30:17.283Z,10.74
2016-04-01T07:31:17.160Z,10.86
2016-04-01T07:32:17.334Z,10.91
2016-04-01T07:33:17.479Z,10.92
2016-04-01T07:34:17.528Z,10.89
2016-04-01T07:35:17.328Z,11.02
2016-04-01T07:36:17.221Z,10.99
2016-04-01T07:37:17.365Z,10.98
2016-04-01T07:38:17.257Z,11.01
2016-04-01T07:39:17.229Z,11.02
2016-04-01T07:40:17.951Z,11.06
2016-04-01T07:41:17.515Z,10.98
2016-04-01T07:42:17.003Z,11.14
2016-04-01T07:43:16.943Z,11.09
2016-04-01T07:44:16.854Z,11.13
2016-04-01T07:46:16.953Z,11.27
2016-04-01T07:47:17.112Z,11.2
2016-04-01T07:48:16.693Z,11.17
2016-04-01T07:49:16.471Z,11.21
2016-04-01T07:50:16.687Z,11.29
2016-04-01T07:51:16.668Z,11.21
2016-04-01T07:52:16.682Z,11.24
2016-04-01T07:53:16.805Z,11.24
2016-04-01T07:54:16.507Z,11.28
2016-04-01T07:55:16.617Z,11.28
2016-04-01T07:56:16.821Z,11.31
2016-04-01T07:58:16.995Z,11.24
2016-04-01T07:59:16.513Z,11.21
2016-04-01T08:00:16.562Z,11.25
2016-04-01T08:01:16.751Z,11.27
2016-04-01T08:02:16.519Z,11.25
2016-04-01T08:03:16.615Z,11.25
2016-04-01T08:04:16.320Z,11.28
2016-04-01T08:05:16.369Z,11.24
2016-04-01T08:06:16.339Z,11.31
2016-04-01T08:07:16.342Z,11.31
2016-04-01T08:08:16.391Z,11.19
2016-04-01T08:09:16.410Z,11.21
2016-04-01T08:10:16.115Z,11.21
2016-04-01T08:11:15.274Z,11.14
2016-04-01T08:12:16.168Z,11.11
2016-04-01T08:13:15.952Z,11.06
2016-04-01T08:14:16.501Z,11.03
2016-04-01T08:15:16.395Z,11.07
2016-04-01T08:16:16.491Z,11.01
2016-04-01T08:17:16.384Z,11.06
2016-04-01T08:18:15.871Z,10.98
2016-04-01T08:19:16.140Z,11.01
2016-04-01T08:20:16.220Z,10.92
2016-04-01T08:21:16.317Z,10.98
2016-04-01T08:22:16.210Z,10.95
2016-04-01T08:23:15.588Z,10.91
2016-04-01T08:24:16.122Z,10.89
2016-04-01T08:25:15.656Z,10.98
2016-04-01T08:26:15.939Z,11.01
2016-04-01T08:27:16.129Z,11.13
2016-04-01T08:28:15.741Z,11.13
2016-04-01T08:29:15.776Z,11.14
2016-04-01T08:30:16.060Z,11.29
2016-04-01T08:31:15.906Z,11.27
2016-04-01T08:32:15.581Z,11.29
2016-04-01T08:33:15.755Z,11.32
2016-04-01T08:34:15.414Z,11.32
2016-04-01T08:35:15.652Z,11.31
2016-04-01T08:36:15.560Z,11.31
2016-04-01T08:37:15.344Z,11.17
2016-04-01T08:38:15.332Z,11.19
2016-04-01T08:39:15.318Z,11.2
2016-04-01T08:40:15.321Z,11.17
2016-04-01T08:41:15.496Z,11.13
2016-04-01T08:42:15.670Z,11.11
2016-04-01T08:43:15.220Z,11.07
2016-04-01T08:44:14.426Z,11.13
2016-04-01T08:45:15.148Z,11.03
2016-04-01T08:46:15.118Z,11.03
2016-04-01T08:47:15.309Z,10.98
2016-04-01T08:48:15.156Z,11.09
2016-04-01T08:49:15.048Z,11.07
2016-04-01T08:50:15.254Z,11.01
2016-04-01T08:51:15.007Z,11.03
2016-04-01T08:52:14.995Z,11.06
2016-04-01T08:53:15.184Z,11.17
2016-04-01T08:54:15.484Z,11.32
2016-04-01T08:55:14.925Z,11.44
2016-04-01T08:56:15.145Z,11.35
2016-04-01T08:57:15.367Z,11.49
2016-04-01T08:58:15.416Z,11.59
2016-04-01T08:59:15.341Z,11.67
2016-04-01T09:00:15.672Z,11.78
2016-04-01T09:01:16.111Z,11.87
2016-04-01T09:02:28.896Z,12.02
2016-04-01T09:03:18.727Z,12.13
2016-04-01T09:04:32.744Z,12.27
2016-04-01T09:05:17.247Z,12.27
2016-04-01T09:06:28.485Z,12.38
2016-04-01T09:07:15.847Z,12.45
2016-04-01T09:08:15.740Z,12.46
2016-04-01T09:09:14.774Z,12.54
2016-04-01T09:10:14.761Z,12.54
2016-04-01T09:11:14.545Z,12.7
2016-04-01T09:12:15.360Z,12.7
2016-04-01T09:13:14.816Z,12.75
2016-04-01T09:14:14.615Z,12.74
2016-04-01T09:15:15.087Z,12.74
2016-04-01T09:16:14.512Z,12.74
2016-04-01T09:17:14.390Z,12.69
2016-04-01T09:18:14.970Z,12.66
2016-04-01T09:19:28.192Z,12.71
2016-04-01T09:20:13.976Z,12.7
2016-04-01T09:21:14.540Z,12.71
2016-04-01T09:22:14.340Z,12.69
2016-04-01T09:23:14.420Z,12.69
2016-04-01T09:24:14.236Z,12.64
2016-04-01T09:25:14.395Z,12.64
2016-04-01T09:26:14.319Z,12.66
2016-04-01T09:27:14.322Z,12.6
2016-04-01T09:28:14.122Z,12.67
2016-04-01T09:29:14.374Z,12.64
2016-04-01T09:30:14.455Z,12.66
2016-04-01T09:31:14.146Z,12.77
2016-04-01T09:32:14.492Z,12.64
2016-04-01T09:33:14.042Z,12.63
2016-04-01T09:34:13.967Z,12.69
2016-04-01T09:35:14.891Z,12.69
2016-04-01T09:36:14.003Z,12.77
2016-04-01T09:37:13.944Z,12.81
2016-04-01T09:38:13.352Z,12.88
2016-04-01T09:39:13.871Z,12.88
2016-04-01T09:40:13.857Z,12.87
2016-04-01T09:41:14.110Z,12.93
2016-04-01T09:42:14.238Z,13.02
2016-04-01T09:43:13.882Z,13
2016-04-01T09:44:14.149Z,12.99
2016-04-01T09:45:14.246Z,13.03
2016-04-01T09:46:13.655Z,13.02
2016-04-01T09:47:15.143Z,13.02
2016-04-01T09:48:15.036Z,13.04
2016-04-01T09:49:14.413Z,13.02
2016-04-01T09:50:14.010Z,13.06
2016-04-01T09:51:13.840Z,13.09
2016-04-01T09:52:14.265Z,13.2
2016-04-01T09:53:13.564Z,13.18
2016-04-01T09:54:14.833Z,13.21
2016-04-01T09:55:13.539Z,13.24
2016-04-01T09:57:13.544Z,13.24
2016-04-01T09:58:13.765Z,13.3
2016-04-01T09:59:13.597Z,13.3
2016-04-01T10:00:14.130Z,13.24
2016-04-01T10:01:13.336Z,13.33
2016-04-01T10:02:13.354Z,13.33
2016-04-01T10:03:13.325Z,13.3
2016-04-01T10:04:13.500Z,13.22
2016-04-01T10:05:13.330Z,13.27
2016-04-01T10:06:13.240Z,13.15
2016-04-01T10:07:13.243Z,13.15
2016-04-01T10:08:13.246Z,13.21
2016-04-01T10:09:13.233Z,13.12
2016-04-01T10:10:13.220Z,13.14
2016-04-01T10:11:13.129Z,13.17
2016-04-01T10:12:13.116Z,13.2
2016-04-01T10:13:13.212Z,13.09
2016-04-01T10:14:12.965Z,13.21
2016-04-01T10:15:12.967Z,13.22
2016-04-01T10:16:12.407Z,13.15
2016-04-01T10:17:13.129Z,13.25
2016-04-01T10:18:12.866Z,13.33
2016-04-01T10:19:12.932Z,13.36
2016-04-01T10:20:27.028Z,13.33
2016-04-01T10:21:13.468Z,13.37
2016-04-01T10:22:13.376Z,13.51
2016-04-01T10:23:13.270Z,13.51
2016-04-01T10:24:13.070Z,13.52
2016-04-01T10:25:12.697Z,13.58
2016-04-01T10:26:27.434Z,13.61
2016-04-01T10:27:12.671Z,13.54
2016-04-01T10:28:12.628Z,13.52
2016-04-01T10:29:12.583Z,13.62
2016-04-01T10:30:12.648Z,13.69
2016-04-01T10:31:12.572Z,13.79
2016-04-01T10:32:12.731Z,13.88
2016-04-01T10:33:12.516Z,13.76
2016-04-01T10:34:12.550Z,13.89
2016-04-01T10:35:12.490Z,13.91
2016-04-01T10:36:12.822Z,13.88
2016-04-01T10:37:12.620Z,13.89
2016-04-01T10:38:12.436Z,13.98
2016-04-01T10:39:12.438Z,13.91
2016-04-01T10:40:12.313Z,13.95
2016-04-01T10:41:12.943Z,13.95
2016-04-01T10:42:12.271Z,14.01
2016-04-01T10:43:12.465Z,14.12
2016-04-01T10:44:12.308Z,14.09
2016-04-01T10:45:12.389Z,14.21
2016-04-01T10:46:12.314Z,14.16
2016-04-01T10:47:12.191Z,14.16
2016-04-01T10:48:12.210Z,14.31
2016-04-01T10:49:13.215Z,14.2
2016-04-01T10:50:12.168Z,14.14
2016-04-01T10:51:12.233Z,14.04
2016-04-01T10:52:12.329Z,13.98
2016-04-01T10:53:12.332Z,13.95
2016-04-01T10:54:12.573Z,13.91
2016-04-01T10:55:11.995Z,13.84
2016-04-01T10:56:12.122Z,13.73
2016-04-01T10:57:11.968Z,13.62
2016-04-01T10:58:11.158Z,13.58
2016-04-01T10:59:12.005Z,13.76
2016-04-01T11:00:12.761Z,13.79
2016-04-01T11:01:11.854Z,13.83
2016-04-01T11:02:11.841Z,13.92
2016-04-01T11:03:11.953Z,13.89
2016-04-01T11:04:12.817Z,14.07
2016-04-01T11:05:12.317Z,14.04
2016-04-01T11:06:11.774Z,14.07
2016-04-01T11:07:11.697Z,14.06
2016-04-01T11:08:11.787Z,14.16
2016-04-01T11:09:11.853Z,14.27
2016-04-01T11:10:11.950Z,14.32
2016-04-01T11:11:11.656Z,14.29
2016-04-01T11:12:11.611Z,14.25
2016-04-01T11:13:12.286Z,14.34
2016-04-01T11:14:11.538Z,14.34
2016-04-01T11:15:12.763Z,14.34
2016-04-01T11:16:11.591Z,14.34
2016-04-01T11:17:12.909Z,14.43
2016-04-01T11:18:11.659Z,14.42
2016-04-01T11:19:12.883Z,14.49
2016-04-01T11:20:26.010Z,14.54
2016-04-01T11:21:12.557Z,14.61
2016-04-01T11:22:11.685Z,14.67
2016-04-01T11:24:25.537Z,14.72
2016-04-01T11:25:11.396Z,14.71
2016-04-01T11:26:11.274Z,14.83
2016-04-01T11:27:10.808Z,14.94
2016-04-01T11:28:12.388Z,14.91
2016-04-01T11:30:10.862Z,14.94
2016-04-01T11:32:11.523Z,14.87
2016-04-01T11:33:12.104Z,14.74
2016-04-01T11:34:14.376Z,14.75
2016-04-01T11:35:11.064Z,14.86
2016-04-01T11:36:11.051Z,14.84
2016-04-01T11:37:11.928Z,14.78
2016-04-01T11:38:10.993Z,14.84
2016-04-01T11:39:10.917Z,14.87
2016-04-01T11:40:11.342Z,15.01
2016-04-01T11:41:12.111Z,15.05
2016-04-01T11:42:11.020Z,15.01
2016-04-01T11:43:11.179Z,15.13
2016-04-01T11:44:10.806Z,15.26
2016-04-01T11:45:10.903Z,15.56
2016-04-01T11:46:11.594Z,16.01
2016-04-01T11:47:10.814Z,16.06
2016-04-01T11:48:10.817Z,16
2016-04-01T11:49:10.929Z,15.89
2016-04-01T11:50:10.980Z,16.01
2016-04-01T11:51:10.872Z,16.03
2016-04-01T11:52:10.860Z,15.93
2016-04-01T11:53:10.659Z,15.99
2016-04-01T11:54:10.615Z,16.26
2016-04-01T11:55:10.571Z,16.23
2016-04-01T11:56:10.541Z,16.23
2016-04-01T11:57:10.701Z,17.07
2016-04-01T11:58:10.515Z,18.12
2016-04-01T11:59:10.471Z,18.1
2016-04-01T12:00:11.052Z,17.95
2016-04-01T12:01:10.602Z,18.12
2016-04-01T12:02:10.637Z,18.55
2016-04-01T12:03:10.498Z,18.98
2016-04-01T12:04:10.782Z,19.25
2016-04-01T12:05:09.550Z,19.15
2016-04-01T12:06:10.553Z,19.24
2016-04-01T12:07:09.650Z,20.12
2016-04-01T12:08:10.449Z,20.38
2016-04-01T12:09:10.234Z,20.93
2016-04-01T12:10:11.173Z,22.22
2016-04-01T12:11:10.411Z,24.08
2016-04-01T12:12:10.366Z,25.67
2016-04-01T12:13:10.587Z,26.37
2016-04-01T12:14:11.168Z,26.72
2016-04-01T12:15:10.264Z,26.73
2016-04-01T12:16:10.564Z,26.73
2016-04-01T12:17:10.161Z,25.84
2016-04-01T12:18:10.070Z,24.6
2016-04-01T12:19:10.120Z,23.47
2016-04-01T12:20:24.000Z,22.19
2016-04-01T12:21:10.750Z,21.59
2016-04-01T12:22:09.940Z,20.98
2016-04-01T12:24:09.929Z,20.1
2016-04-01T12:25:10.479Z,19.84
2016-04-01T12:26:10.013Z,19.63
2016-04-01T12:27:09.874Z,19.43
2016-04-01T12:28:09.878Z,19.43
2016-04-01T12:29:09.912Z,19.42
2016-04-01T12:30:12.977Z,19.46
2016-04-01T12:31:09.776Z,19.54
2016-04-01T12:33:10.516Z,20.13
2016-04-01T12:34:09.926Z,20.69
2016-04-01T12:35:10.288Z,21.44
2016-04-01T12:36:09.618Z,21.79
2016-04-01T12:37:09.699Z,21.56
2016-04-01T12:38:09.623Z,21.59
2016-04-01T12:39:09.595Z,22.29
2016-04-01T12:40:10.239Z,22.59
2016-04-01T12:41:09.553Z,22.56
2016-04-01T12:42:09.634Z,22.78
2016-04-01T12:43:09.511Z,22.87
2016-04-01T12:44:09.500Z,22.9
2016-04-01T12:45:09.470Z,23.19
2016-04-01T12:46:09.801Z,23.14
2016-04-01T12:47:09.507Z,23.35
2016-04-01T12:48:23.325Z,24.01
2016-04-01T12:50:09.436Z,24.45
2016-04-01T12:51:09.377Z,24.14
2016-04-01T12:52:09.285Z,23.12
2016-04-01T12:53:09.413Z,22.71
2016-04-01T12:54:09.276Z,22.83
2016-04-01T12:55:09.325Z,23.01
2016-04-01T12:56:09.344Z,23.09
2016-04-01T12:57:09.597Z,22.9
2016-04-01T12:58:09.224Z,22.56
2016-04-01T12:59:23.448Z,22.97
2016-04-01T13:00:09.682Z,23.35
2016-04-01T13:01:09.155Z,23.11
2016-04-01T13:02:09.563Z,22.5
2016-04-01T13:03:09.769Z,21.83
2016-04-01T13:04:09.100Z,21.66
2016-04-01T13:05:09.368Z,21.66
2016-04-01T13:06:09.496Z,21.82
2016-04-01T13:07:09.107Z,22.07
2016-04-01T13:08:08.970Z,21.88
2016-04-01T13:10:08.928Z,21.41
2016-04-01T13:12:09.450Z,20.89
2016-04-01T13:13:09.140Z,21.34
2016-04-01T13:14:08.908Z,21.83
2016-04-01T13:15:12.989Z,22.34
2016-04-01T13:16:09.038Z,22.52
2016-04-01T13:17:08.806Z,22.83
2016-04-01T13:18:08.934Z,23.11
2016-04-01T13:19:09.249Z,23.32
2016-04-01T13:20:08.986Z,23.17